Time;durP1;ratioP1;P1;durP2;ratioP2;P2;SDS_P1;SDS_P2;PMS_P1;PMS_P2;Temp;Humidity;BMP_temperature;BMP_pressure;BME280_temperature;BME280_humidity;BME280_pressure;Samples;Min_cycle;Max_cycle;Signal;HPM_P1;HPM_P2
2022/01/02 00:00:08;;;;;;;13.32;7.28;;;11.50;99.90;;;;;;4937964;29;20055;-65
2022/01/02 00:02:35;;;;;;;12.15;6.97;;;11.50;99.90;;;;;;4927989;29;20048;-65
2022/01/02 00:05:06;;;;;;;12.63;7.03;;;11.40;99.90;;;;;;4919835;29;20108;-65
2022/01/02 00:07:35;;;;;;;14.52;6.95;;;11.50;99.90;;;;;;4920995;29;20079;-65
2022/01/02 00:10:04;;;;;;;14.95;7.60;;;11.50;99.90;;;;;;4910926;29;20107;-65
2022/01/02 00:12:33;;;;;;;13.27;7.30;;;11.50;99.90;;;;;;4911177;29;20080;-64
2022/01/02 00:15:03;;;;;;;12.13;7.07;;;11.40;99.90;;;;;;4926778;29;20067;-64
2022/01/02 00:17:30;;;;;;;11.25;6.72;;;11.50;99.90;;;;;;4911292;29;20405;-65
2022/01/02 00:20:01;;;;;;;18.55;7.07;;;11.50;99.90;;;;;;4927832;29;20048;-64
2022/01/02 00:22:36;;;;;;;18.23;7.32;;;11.50;99.90;;;;;;4928125;29;20069;-64
2022/01/02 00:25:08;;;;;;;17.85;6.60;;;11.50;99.90;;;;;;4909355;29;20132;-64
2022/01/02 00:27:35;;;;;;;11.25;7.03;;;11.40;99.90;;;;;;4910989;29;20044;-64
2022/01/02 00:30:04;;;;;;;15.63;7.60;;;11.50;99.90;;;;;;4910361;29;20048;-63
2022/01/02 00:32:32;;;;;;;12.23;7.15;;;11.50;99.90;;;;;;4910877;29;20063;-64
2022/01/02 00:35:00;;;;;;;13.15;7.40;;;11.50;99.90;;;;;;4923124;29;20052;-64
2022/01/02 00:37:25;;;;;;;15.15;8.02;;;11.50;99.90;;;;;;4907565;29;20056;-64
2022/01/02 00:39:51;;;;;;;15.65;7.57;;;11.50;99.90;;;;;;4901122;29;20064;-64
2022/01/02 00:42:34;;;;;;;13.38;7.07;;;11.50;99.90;;;;;;4927775;29;20135;-64
2022/01/02 00:45:04;;;;;;;26.55;7.90;;;11.50;99.90;;;;;;4894894;29;20040;-64
2022/01/02 00:47:37;;;;;;;13.52;7.90;;;11.40;99.90;;;;;;4926476;29;20115;-64
2022/01/02 00:50:08;;;;;;;14.25;7.40;;;11.50;99.90;;;;;;4941766;29;20056;-64
2022/01/02 00:52:43;;;;;;;13.57;7.30;;;11.50;99.90;;;;;;4910382;29;20056;-65
2022/01/02 00:55:11;;;;;;;15.38;6.95;;;11.50;99.90;;;;;;4927324;29;20116;-64
2022/01/02 00:57:39;;;;;;;18.20;8.23;;;11.50;99.90;;;;;;4926467;29;20056;-64
2022/01/02 01:00:12;;;;;;;11.82;6.88;;;11.50;99.90;;;;;;4927142;29;20115;-64
2022/01/02 01:02:45;;;;;;;15.55;7.30;;;11.50;99.90;;;;;;4927841;29;20056;-64
2022/01/02 01:05:19;;;;;;;13.65;7.75;;;11.50;99.90;;;;;;4894716;29;20059;-64
2022/01/02 01:07:51;;;;;;;11.18;6.97;;;11.50;99.90;;;;;;4926563;29;20129;-64
2022/01/02 01:10:19;;;;;;;18.23;8.13;;;11.50;99.90;;;;;;4941011;29;20043;-64
2022/01/02 01:12:47;;;;;;;17.65;8.75;;;11.50;99.90;;;;;;4894864;29;20066;-64
2022/01/02 01:15:12;;;;;;;16.98;8.25;;;11.50;99.90;;;;;;4927601;29;20107;-64
2022/01/02 01:17:39;;;;;;;19.67;8.38;;;11.50;99.90;;;;;;4925779;29;20048;-65
2022/01/02 01:20:09;;;;;;;18.70;8.38;;;11.50;99.90;;;;;;4910545;29;20350;-65
2022/01/02 01:22:35;;;;;;;16.08;7.63;;;11.50;99.90;;;;;;4941756;29;20094;-65
2022/01/02 01:25:00;;;;;;;15.55;7.75;;;11.50;99.90;;;;;;4910351;29;20516;-65
2022/01/02 01:27:27;;;;;;;12.88;8.23;;;11.50;99.90;;;;;;4927238;29;20139;-65
2022/01/02 01:29:53;;;;;;;15.05;8.48;;;11.50;99.90;;;;;;4908720;29;20052;-65
2022/01/02 01:32:18;;;;;;;17.27;8.50;;;11.50;99.90;;;;;;4927086;29;20079;-65
2022/01/02 01:34:44;;;;;;;17.67;8.27;;;11.50;99.90;;;;;;4927615;29;20079;-64
2022/01/02 01:37:10;;;;;;;16.60;8.73;;;11.50;99.90;;;;;;4927808;29;20047;-64
2022/01/02 01:39:35;;;;;;;14.88;8.10;;;11.40;99.90;;;;;;4912565;29;20308;-65
2022/01/02 01:42:10;;;;;;;19.27;8.67;;;11.50;99.90;;;;;;4928994;29;20123;-65
2022/01/02 01:47:24;;;;;;;17.30;9.23;;;11.50;99.90;;;;;;4866972;29;20113;-65
2022/01/02 01:49:50;;;;;;;22.00;9.33;;;11.50;99.90;;;;;;4855733;29;20541;-65
2022/01/02 01:52:16;;;;;;;16.70;9.33;;;11.50;99.90;;;;;;4859360;29;20329;-65
2022/01/02 01:54:41;;;;;;;22.27;9.63;;;11.40;99.90;;;;;;4881873;29;20422;-65
2022/01/02 01:57:07;;;;;;;16.63;10.20;;;11.40;99.90;;;;;;4881171;29;20144;-65
2022/01/02 01:59:33;;;;;;;19.08;9.60;;;11.40;99.90;;;;;;4872501;29;20060;-65
2022/01/02 02:01:59;;;;;;;18.25;10.23;;;11.40;99.90;;;;;;4859405;29;20089;-64
2022/01/02 02:04:24;;;;;;;23.95;11.90;;;11.40;99.90;;;;;;4875264;29;20061;-65
2022/01/02 02:06:53;;;;;;;19.25;9.88;;;11.40;99.90;;;;;;4884433;29;20140;-65
2022/01/02 02:09:20;;;;;;;18.42;9.80;;;11.40;99.90;;;;;;4856705;29;20073;-65
2022/01/02 02:11:57;;;;;;;21.55;10.80;;;11.40;99.90;;;;;;4871616;29;20137;-65
2022/01/02 02:14:23;;;;;;;30.00;11.20;;;11.40;99.90;;;;;;4872121;29;20100;-65
2022/01/02 02:16:48;;;;;;;22.45;10.35;;;11.40;99.90;;;;;;4856461;29;20064;-65
2022/01/02 02:19:14;;;;;;;24.83;11.40;;;11.40;99.90;;;;;;4874760;29;20061;-65
2022/01/02 02:21:39;;;;;;;22.10;10.30;;;11.30;99.90;;;;;;4872832;29;20385;-65
2022/01/02 02:24:07;;;;;;;32.42;11.68;;;11.30;99.90;;;;;;4904957;29;20056;-66
2022/01/02 02:26:34;;;;;;;22.52;11.55;;;11.30;99.90;;;;;;4913072;29;20126;-66
2022/01/02 02:29:01;;;;;;;22.55;11.90;;;11.30;99.90;;;;;;4912678;29;20063;-65
2022/01/02 02:31:27;;;;;;;22.85;12.32;;;11.40;99.90;;;;;;4930147;29;20067;-66
2022/01/02 02:33:53;;;;;;;26.10;12.70;;;11.30;99.90;;;;;;4911337;29;20477;-66
2022/01/02 02:36:18;;;;;;;26.73;13.52;;;11.30;99.90;;;;;;4930178;29;20101;-66
2022/01/02 02:38:44;;;;;;;24.23;12.68;;;11.30;99.90;;;;;;4928604;29;20541;-66
2022/01/02 02:41:10;;;;;;;25.50;13.37;;;11.30;99.90;;;;;;4929960;29;20139;-67
2022/01/02 02:43:55;;;;;;;30.83;14.27;;;11.30;99.90;;;;;;4903319;29;20297;-66
2022/01/02 02:49:05;;;;;;;26.60;13.60;;;11.30;99.90;;;;;;4926136;29;20055;-66
2022/01/02 02:54:04;;;;;;;32.03;14.20;;;11.10;99.90;;;;;;4905720;29;19971;-67
2022/01/02 02:56:41;;;;;;;29.90;15.40;;;11.20;99.90;;;;;;4929881;29;20111;-67
2022/01/02 02:59:09;;;;;;;34.10;14.25;;;11.10;99.90;;;;;;4929477;29;20355;-68
2022/01/02 03:01:34;;;;;;;46.58;15.15;;;11.20;99.90;;;;;;4929697;29;20048;-68
2022/01/02 03:04:00;;;;;;;32.00;14.73;;;11.10;99.90;;;;;;4910971;29;20528;-68
2022/01/02 03:06:26;;;;;;;41.70;15.20;;;11.10;99.90;;;;;;4890931;29;20312;-69
2022/01/02 03:08:52;;;;;;;44.03;16.80;;;11.10;99.90;;;;;;4896677;29;20052;-68
2022/01/02 03:11:20;;;;;;;28.13;14.25;;;11.10;99.90;;;;;;4911915;29;20058;-68
2022/01/02 03:13:49;;;;;;;30.17;13.82;;;11.10;99.90;;;;;;4929436;29;20040;-68
2022/01/02 03:16:15;;;;;;;28.38;15.07;;;11.10;99.90;;;;;;4910742;29;20056;-68
2022/01/02 03:18:41;;;;;;;36.53;16.42;;;11.10;99.90;;;;;;4911720;29;20400;-68
2022/01/02 03:21:07;;;;;;;29.45;15.43;;;11.10;99.90;;;;;;4912511;29;20154;-68
2022/01/02 03:23:33;;;;;;;31.45;15.95;;;11.10;99.90;;;;;;4929062;29;20036;-68
2022/01/02 03:25:59;;;;;;;35.72;16.83;;;11.10;99.90;;;;;;4911531;29;20051;-68
2022/01/02 03:28:25;;;;;;;33.83;16.67;;;11.00;99.90;;;;;;4943457;29;20055;-69
2022/01/02 03:30:51;;;;;;;35.58;16.58;;;11.10;99.90;;;;;;4929104;29;20063;-69
2022/01/02 03:33:17;;;;;;;30.75;17.00;;;11.00;99.90;;;;;;4912036;29;20063;-69
2022/01/02 03:35:43;;;;;;;;;;;11.00;99.90;;;;;;4911747;29;20116;-69
2022/01/02 03:38:09;;;;;;;35.10;17.55;;;11.00;99.90;;;;;;4927664;29;19943;-68
2022/01/02 03:40:35;;;;;;;35.35;16.75;;;11.00;99.90;;;;;;4927103;29;20079;-69
2022/01/02 03:43:02;;;;;;;39.20;17.58;;;11.00;99.90;;;;;;4911727;29;20461;-69
2022/01/02 03:45:28;;;;;;;44.85;17.70;;;11.00;99.90;;;;;;4911634;29;20044;-69
2022/01/02 03:47:54;;;;;;;37.67;17.50;;;11.00;99.90;;;;;;4899805;29;20103;-67
2022/01/02 03:50:19;;;;;;;37.50;17.08;;;11.00;99.90;;;;;;4921074;29;20043;-67
2022/01/02 03:52:45;;;;;;;32.05;16.45;;;11.00;99.90;;;;;;4895995;29;20087;-68
2022/01/02 03:55:11;;;;;;;41.78;18.63;;;11.00;99.90;;;;;;4911558;29;20040;-67
2022/01/02 03:57:37;;;;;;;42.03;18.77;;;11.00;99.90;;;;;;4906910;29;20047;-68
2022/01/02 04:00:09;;;;;;;30.42;17.20;;;11.00;99.90;;;;;;4917636;29;20100;-67
2022/01/02 04:02:37;;;;;;;47.33;17.85;;;11.00;99.90;;;;;;4911468;29;20060;-68
2022/01/02 04:05:06;;;;;;;42.63;17.83;;;11.00;99.90;;;;;;4895119;29;20095;-67
2022/01/02 04:07:32;;;;;;;33.55;15.95;;;11.10;99.90;;;;;;4911099;29;20056;-67
2022/01/02 04:10:01;;;;;;;35.90;17.17;;;11.10;99.90;;;;;;4927756;29;20376;-68
2022/01/02 04:12:27;;;;;;;32.38;15.88;;;11.10;99.90;;;;;;4911097;29;20062;-68
2022/01/02 04:14:52;;;;;;;38.60;18.20;;;11.10;99.90;;;;;;4928035;29;20088;-67
2022/01/02 04:17:18;;;;;;;44.13;16.37;;;11.00;99.90;;;;;;4910929;29;20312;-68
2022/01/02 04:19:43;;;;;;;41.78;15.98;;;11.10;99.90;;;;;;4909162;29;20037;-68
2022/01/02 04:22:09;;;;;;;39.20;16.60;;;11.10;99.90;;;;;;4911026;29;20048;-68
2022/01/02 04:24:35;;;;;;;37.33;18.25;;;11.10;99.90;;;;;;4928076;29;20587;-68
2022/01/02 04:27:00;;;;;;;50.65;18.20;;;11.10;99.90;;;;;;4910575;29;20052;-68
2022/01/02 04:29:26;;;;;;;41.80;15.85;;;11.10;99.90;;;;;;4910549;29;20052;-68
2022/01/02 04:31:52;;;;;;;34.58;16.77;;;11.10;99.90;;;;;;4927930;29;20044;-68
2022/01/02 04:34:17;;;;;;;36.80;16.08;;;11.10;99.90;;;;;;4910510;29;20145;-68
2022/01/02 04:36:43;;;;;;;36.27;14.83;;;11.20;99.90;;;;;;4910609;29;20055;-69
2022/01/02 04:39:09;;;;;;;37.60;16.57;;;11.20;99.90;;;;;;4910476;29;20355;-68
2022/01/02 04:41:34;;;;;;;29.03;13.60;;;11.20;99.90;;;;;;4909127;29;20772;-68
2022/01/02 04:44:00;;;;;;;32.47;15.13;;;11.20;99.90;;;;;;4908810;29;20064;-68
2022/01/02 04:46:25;;;;;;;37.50;14.73;;;11.20;99.90;;;;;;4905981;29;20348;-68
2022/01/02 04:48:51;;;;;;;29.17;14.80;;;11.20;99.90;;;;;;4910707;29;20065;-68
2022/01/02 04:51:17;;;;;;;30.07;14.73;;;11.20;99.90;;;;;;4902487;29;20292;-68
2022/01/02 04:53:47;;;;;;;27.80;14.17;;;11.20;99.90;;;;;;4920245;29;20052;-68
2022/01/02 04:56:14;;;;;;;29.08;14.50;;;11.20;99.90;;;;;;4910264;29;20304;-68
2022/01/02 04:58:39;;;;;;;33.10;15.15;;;11.20;99.90;;;;;;4927643;29;20488;-68
2022/01/02 05:01:11;;;;;;;33.97;15.43;;;11.30;99.90;;;;;;4917716;29;20071;-68
2022/01/02 05:03:43;;;;;;;32.70;14.25;;;11.30;99.90;;;;;;4910247;29;20056;-68
2022/01/02 05:06:09;;;;;;;41.85;15.43;;;11.30;99.90;;;;;;4941047;29;20056;-68
2022/01/02 05:08:36;;;;;;;;;;;11.30;99.90;;;;;;4910785;29;20060;-68
2022/01/02 05:11:02;;;;;;;31.13;14.57;;;11.20;99.90;;;;;;4927488;29;19962;-68
2022/01/02 05:13:28;;;;;;;31.13;13.82;;;11.30;99.90;;;;;;4895190;29;20053;-68
2022/01/02 05:15:53;;;;;;;29.67;13.68;;;11.30;99.90;;;;;;4898506;29;20044;-67
2022/01/02 05:18:19;;;;;;;32.90;15.35;;;11.30;99.90;;;;;;4910457;29;20059;-67
2022/01/02 05:20:46;;;;;;;35.05;14.90;;;11.30;99.90;;;;;;4927284;29;20063;-67
2022/01/02 05:23:16;;;;;;;34.22;14.70;;;11.30;99.90;;;;;;4910060;29;20063;-67
2022/01/02 05:25:43;;;;;;;31.65;12.45;;;11.30;99.90;;;;;;4910091;29;20048;-67
2022/01/02 05:28:12;;;;;;;37.10;15.27;;;11.30;99.90;;;;;;4927032;29;20107;-67
2022/01/02 05:30:38;;;;;;;34.33;13.38;;;11.30;99.90;;;;;;4910117;29;20116;-67
2022/01/02 05:33:04;;;;;;;;;;;11.30;99.90;;;;;;4926317;29;20044;-67
2022/01/02 05:35:31;;;;;;;34.13;13.38;;;11.20;99.90;;;;;;4910220;29;19934;-67
2022/01/02 05:37:57;;;;;;;33.90;12.25;;;11.30;99.90;;;;;;4910403;29;20060;-67
2022/01/02 05:40:23;;;;;;;32.17;12.88;;;11.30;99.90;;;;;;4926896;29;20040;-67
2022/01/02 05:42:49;;;;;;;30.42;12.15;;;11.30;99.90;;;;;;4909817;29;20047;-68
2022/01/02 05:45:15;;;;;;;35.47;12.13;;;11.30;99.90;;;;;;4916013;29;20052;-67
2022/01/02 05:47:40;;;;;;;28.70;11.32;;;11.30;99.90;;;;;;4927035;29;20056;-67
2022/01/02 05:50:07;;;;;;;35.60;11.90;;;11.30;99.90;;;;;;4935166;29;20048;-67
2022/01/02 05:52:33;;;;;;;;;;;11.30;99.90;;;;;;4910292;29;20091;-67
2022/01/02 05:54:59;;;;;;;31.80;11.82;;;11.30;99.90;;;;;;4924232;29;19949;-67
2022/01/02 05:57:24;;;;;;;34.80;11.85;;;11.30;99.90;;;;;;4909969;29;20151;-67
2022/01/02 05:59:50;;;;;;;28.80;11.20;;;11.30;99.90;;;;;;4926873;29;20067;-67
2022/01/02 06:02:16;;;;;;;28.02;10.43;;;11.30;99.90;;;;;;4926807;29;20094;-67
2022/01/02 06:04:41;;;;;;;33.90;10.70;;;11.30;99.90;;;;;;4927157;29;20048;-67
2022/01/02 06:07:08;;;;;;;27.25;9.85;;;11.30;99.90;;;;;;4893434;29;20193;-67
2022/01/02 06:09:34;;;;;;;25.75;10.20;;;11.30;99.90;;;;;;4909807;29;20052;-67
2022/01/02 06:12:00;;;;;;;26.65;10.15;;;11.30;99.90;;;;;;4925420;29;20063;-67
2022/01/02 06:14:25;;;;;;;26.45;10.20;;;11.40;99.90;;;;;;4909743;29;20104;-68
2022/01/02 06:16:51;;;;;;;23.77;9.47;;;11.40;99.90;;;;;;4915575;29;20056;-67
2022/01/02 06:19:16;;;;;;;23.50;9.27;;;11.40;99.90;;;;;;4910883;29;20036;-67
2022/01/02 06:21:42;;;;;;;31.23;10.33;;;11.40;99.90;;;;;;4908988;29;20305;-67
2022/01/02 06:24:08;;;;;;;21.58;8.68;;;11.40;99.90;;;;;;4912060;29;20052;-68
2022/01/02 06:26:34;;;;;;;28.00;9.13;;;11.40;99.90;;;;;;4927111;29;20072;-68
2022/01/02 06:29:03;;;;;;;23.13;9.43;;;11.40;99.90;;;;;;4909932;29;20292;-69
2022/01/02 06:31:29;;;;;;;26.73;10.25;;;11.40;99.90;;;;;;4911368;29;20304;-68
2022/01/02 06:33:55;;;;;;;27.65;9.88;;;11.50;99.90;;;;;;4930227;29;20388;-69
2022/01/02 06:36:21;;;;;;;24.95;10.80;;;11.40;99.90;;;;;;4913422;29;20060;-68
2022/01/02 06:38:47;;;;;;;23.53;9.87;;;11.40;99.90;;;;;;4928384;29;20056;-68
2022/01/02 06:41:12;;;;;;;23.73;9.55;;;11.50;99.90;;;;;;4930136;29;20317;-69
2022/01/02 06:43:39;;;;;;;21.00;9.13;;;11.50;99.90;;;;;;4912745;29;20084;-68
2022/01/02 06:46:05;;;;;;;24.30;9.00;;;11.50;99.90;;;;;;4912413;29;20048;-68
2022/01/02 06:48:31;;;;;;;22.38;9.00;;;11.50;99.90;;;;;;4904935;29;20048;-68
2022/01/02 06:50:57;;;;;;;23.58;8.38;;;11.50;99.90;;;;;;4926777;29;20519;-69
2022/01/02 06:53:22;;;;;;;22.70;8.38;;;11.50;99.90;;;;;;4913782;29;20056;-69
2022/01/02 06:55:48;;;;;;;20.20;7.87;;;11.50;99.90;;;;;;4929812;29;20056;-68
2022/01/02 06:58:14;;;;;;;20.83;7.45;;;11.50;99.90;;;;;;4911636;29;20344;-69
2022/01/02 07:00:44;;;;;;;18.55;8.07;;;11.50;99.90;;;;;;4926585;29;20100;-72
2022/01/02 07:03:09;;;;;;;18.92;7.63;;;11.60;99.90;;;;;;4929354;29;20131;-71
2022/01/02 07:05:35;;;;;;;22.40;7.67;;;11.50;99.90;;;;;;4881520;29;20182;-71
2022/01/02 07:08:01;;;;;;;21.50;7.78;;;11.60;99.90;;;;;;4911930;29;20288;-69
2022/01/02 07:10:27;;;;;;;20.23;6.97;;;11.60;99.90;;;;;;4916411;29;20072;-70
2022/01/02 07:12:52;;;;;;;22.23;7.63;;;11.60;99.90;;;;;;4919948;29;20307;-70
2022/01/02 07:15:18;;;;;;;18.65;6.75;;;11.60;99.90;;;;;;4912190;29;20300;-69
2022/01/02 07:17:44;;;;;;;17.33;6.57;;;11.60;99.90;;;;;;4924081;29;20048;-71
2022/01/02 07:20:12;;;;;;;22.17;6.53;;;11.60;99.90;;;;;;4929008;29;20055;-69
2022/01/02 07:22:40;;;;;;;18.25;6.63;;;11.60;99.90;;;;;;4911673;29;20052;-69
2022/01/02 07:25:07;;;;;;;20.08;5.68;;;11.60;99.90;;;;;;4943911;29;20082;-68
2022/01/02 07:27:32;;;;;;;17.60;5.50;;;11.70;99.90;;;;;;4911607;29;20048;-68
2022/01/02 07:29:59;;;;;;;17.52;5.68;;;11.70;99.90;;;;;;4897839;29;20119;-68
2022/01/02 07:32:25;;;;;;;23.10;5.20;;;11.70;99.90;;;;;;4907960;29;20059;-68
2022/01/02 07:34:50;;;;;;;16.58;5.00;;;11.70;99.90;;;;;;4928404;29;20047;-69
2022/01/02 07:37:17;;;;;;;16.63;5.38;;;11.80;99.90;;;;;;4896315;29;20052;-67
2022/01/02 07:39:42;;;;;;;15.88;4.75;;;11.80;99.90;;;;;;4911349;29;20048;-68
2022/01/02 07:42:08;;;;;;;13.40;4.80;;;11.80;99.90;;;;;;4911713;29;20058;-68
2022/01/02 07:44:36;;;;;;;15.10;6.03;;;11.80;99.90;;;;;;4911374;29;20383;-68
2022/01/02 07:47:03;;;;;;;14.25;5.25;;;11.80;99.90;;;;;;4911794;29;20456;-69
2022/01/02 07:49:28;;;;;;;;;;;11.80;99.90;;;;;;4931567;29;20098;-68
2022/01/02 07:51:57;;;;;;;16.33;5.10;;;11.80;99.90;;;;;;4931308;29;19923;-70
2022/01/02 07:54:23;;;;;;;16.42;5.13;;;11.80;99.90;;;;;;4939153;29;20067;-69
2022/01/02 07:56:49;;;;;;;17.92;5.63;;;11.80;99.90;;;;;;4910332;29;20135;-68
2022/01/02 07:59:14;;;;;;;14.43;5.43;;;11.80;99.90;;;;;;4910839;29;20168;-68
2022/01/02 08:01:40;;;;;;;13.20;6.00;;;11.80;99.90;;;;;;4928275;29;20044;-68
2022/01/02 08:04:06;;;;;;;14.18;5.10;;;11.80;99.90;;;;;;4928403;29;20063;-68
2022/01/02 08:06:31;;;;;;;13.88;5.60;;;11.80;99.90;;;;;;4910849;29;20040;-74
2022/01/02 08:08:57;;;;;;;14.90;5.17;;;11.80;99.90;;;;;;4926713;29;20139;-67
2022/01/02 08:11:23;;;;;;;14.97;5.37;;;11.80;99.90;;;;;;4924927;29;20192;-64
2022/01/02 08:13:48;;;;;;;19.05;5.55;;;11.80;99.90;;;;;;4923121;29;20300;-65
2022/01/02 08:16:14;;;;;;;20.35;5.63;;;11.80;99.90;;;;;;4911123;29;20048;-65
2022/01/02 08:18:41;;;;;;;17.00;6.05;;;11.70;99.90;;;;;;4909421;29;20044;-66
2022/01/02 08:21:07;;;;;;;19.35;6.50;;;11.70;99.90;;;;;;4898306;29;20488;-64
2022/01/02 08:23:33;;;;;;;19.67;6.15;;;11.70;99.90;;;;;;4909416;29;20061;-66
2022/01/02 08:25:59;;;;;;;18.50;6.80;;;11.60;99.90;;;;;;4909514;29;20048;-65
2022/01/02 08:28:25;;;;;;;20.35;6.68;;;11.60;99.90;;;;;;4892413;29;20085;-65
2022/01/02 08:30:50;;;;;;;16.98;6.15;;;11.60;99.90;;;;;;4912362;29;20051;-65
2022/01/02 08:33:16;;;;;;;19.17;6.07;;;11.60;99.90;;;;;;4922589;29;20113;-65
2022/01/02 08:35:44;;;;;;;26.08;7.18;;;11.50;99.90;;;;;;4927616;29;20036;-65
2022/01/02 08:38:11;;;;;;;14.18;6.53;;;11.50;99.90;;;;;;4916802;29;20079;-66
2022/01/02 08:40:38;;;;;;;15.60;5.88;;;11.50;99.90;;;;;;4914194;29;20048;-65
2022/01/02 08:43:04;;;;;;;14.13;6.18;;;11.50;99.90;;;;;;4916743;29;20044;-65
2022/01/02 08:45:30;;;;;;;14.85;6.57;;;11.50;99.90;;;;;;4914379;29;20060;-67
2022/01/02 08:47:56;;;;;;;15.13;6.13;;;11.50;99.90;;;;;;4906895;29;20131;-66
2022/01/02 08:50:21;;;;;;;11.02;6.63;;;11.50;99.90;;;;;;4907611;29;20064;-64
2022/01/02 08:52:47;;;;;;;11.32;6.53;;;11.50;99.90;;;;;;4897646;29;20044;-64
2022/01/02 08:55:14;;;;;;;14.20;6.43;;;11.40;99.90;;;;;;4888706;29;20056;-62
2022/01/02 08:57:39;;;;;;;12.15;6.60;;;11.40;99.90;;;;;;4903805;29;20293;-65
2022/01/02 09:00:06;;;;;;;15.55;6.18;;;11.40;99.90;;;;;;4907806;29;20083;-69
2022/01/02 09:02:31;;;;;;;14.05;6.60;;;11.50;99.90;;;;;;4907411;29;20048;-66
2022/01/02 09:04:57;;;;;;;11.80;6.60;;;11.50;99.90;;;;;;4908872;29;20072;-71
2022/01/02 09:07:23;;;;;;;13.73;6.93;;;11.50;99.90;;;;;;4907312;29;20328;-71
2022/01/02 09:09:48;;;;;;;15.65;6.97;;;11.40;99.90;;;;;;4907549;29;20064;-66
2022/01/02 09:12:15;;;;;;;11.15;6.93;;;11.40;99.90;;;;;;4908867;29;20052;-69
2022/01/02 09:14:42;;;;;;;13.68;6.20;;;11.40;99.90;;;;;;4922649;29;20049;-67
2022/01/02 09:17:08;;;;;;;11.38;6.55;;;11.40;99.90;;;;;;4907394;29;20056;-67
2022/01/02 09:19:33;;;;;;;14.85;6.78;;;11.40;99.90;;;;;;4907282;29;20048;-67
2022/01/02 09:21:59;;;;;;;11.23;6.60;;;11.40;99.90;;;;;;4904088;29;20054;-67
2022/01/02 09:24:25;;;;;;;12.13;7.57;;;11.40;99.90;;;;;;4894289;29;20060;-67
2022/01/02 09:26:51;;;;;;;13.55;7.10;;;11.40;99.90;;;;;;4927732;29;20052;-66
2022/01/02 09:29:16;;;;;;;16.25;8.98;;;11.40;99.90;;;;;;4927232;29;20056;-67
2022/01/02 09:31:42;;;;;;;18.15;8.27;;;11.40;99.90;;;;;;4909981;29;20047;-66
2022/01/02 09:34:08;;;;;;;23.07;10.53;;;11.30;99.90;;;;;;4905762;29;20091;-66
2022/01/02 09:36:34;;;;;;;15.50;8.73;;;11.30;99.90;;;;;;4894599;29;20376;-65
2022/01/02 09:39:01;;;;;;;17.98;10.07;;;11.40;99.90;;;;;;4888530;29;20076;-67
2022/01/02 09:41:26;;;;;;;18.02;9.45;;;11.40;99.90;;;;;;4888430;29;20080;-66
2022/01/02 09:43:52;;;;;;;16.10;7.45;;;11.30;99.90;;;;;;4872715;29;20061;-69
2022/01/02 09:46:23;;;;;;;12.67;7.90;;;11.30;99.90;;;;;;4892382;29;20064;-74
2022/01/02 09:48:51;;;;;;;13.07;7.95;;;11.30;99.90;;;;;;4919800;29;20301;-70
2022/01/02 09:51:19;;;;;;;20.30;8.68;;;11.30;99.90;;;;;;4914551;29;20181;-67
2022/01/02 09:53:46;;;;;;;15.57;7.97;;;11.30;99.90;;;;;;4920341;29;20037;-66
2022/01/02 09:56:14;;;;;;;12.15;7.93;;;11.30;99.90;;;;;;4906105;29;20132;-70
2022/01/02 09:58:43;;;;;;;17.02;9.25;;;11.30;99.90;;;;;;4896186;29;20162;-66
2022/01/02 10:01:30;;;;;;;20.83;10.27;;;11.30;99.90;;;;;;4941007;29;20064;-71
2022/01/02 10:03:57;;;;;;;14.43;9.35;;;11.30;99.90;;;;;;4906856;29;20049;-66
2022/01/02 10:06:53;;;;;;;18.25;9.52;;;11.30;99.90;;;;;;4924013;29;20068;-65
2022/01/02 10:09:37;;;;;;;15.85;9.25;;;11.20;99.90;;;;;;4910220;29;20063;-67
2022/01/02 10:12:22;;;;;;;16.80;9.65;;;11.20;99.90;;;;;;4912916;29;20802;-66
2022/01/02 10:15:06;;;;;;;20.27;9.93;;;11.30;99.90;;;;;;4892057;29;20531;-67
2022/01/02 10:17:59;;;;;;;28.75;11.15;;;11.30;99.90;;;;;;4924039;29;20095;-67
2022/01/02 10:20:32;;;;;;;22.40;9.65;;;11.20;99.90;;;;;;4926557;29;20099;-67
2022/01/02 10:23:18;;;;;;;17.65;10.15;;;11.20;99.90;;;;;;4925563;29;20059;-67
2022/01/02 10:25:53;;;;;;;20.73;9.73;;;11.30;99.90;;;;;;4921662;29;20063;-67
2022/01/02 10:28:37;;;;;;;18.45;10.43;;;11.30;99.90;;;;;;4905568;29;20131;-67
2022/01/02 10:31:15;;;;;;;19.67;10.52;;;11.30;99.90;;;;;;4921666;29;20052;-65
2022/01/02 10:33:59;;;;;;;18.48;10.43;;;11.30;99.90;;;;;;4909847;29;20052;-66
2022/01/02 10:36:40;;;;;;;15.27;9.35;;;11.20;99.90;;;;;;4926672;29;20162;-65
2022/01/02 10:39:14;;;;;;;18.45;10.07;;;11.30;99.90;;;;;;4909882;29;20052;-65
2022/01/02 10:41:45;;;;;;;20.08;10.13;;;11.30;99.90;;;;;;4924964;29;20052;-67
2022/01/02 10:44:32;;;;;;;17.23;10.32;;;11.30;99.90;;;;;;4922082;29;20103;-65
2022/01/02 10:47:17;;;;;;;22.83;10.93;;;11.30;99.90;;;;;;4912534;29;20048;-67
2022/01/02 10:50:03;;;;;;;18.27;9.93;;;11.30;99.90;;;;;;4908063;29;20055;-64
2022/01/02 10:52:41;;;;;;;19.20;9.98;;;11.30;99.90;;;;;;4906670;29;21439;-67
2022/01/02 10:55:23;;;;;;;19.38;10.00;;;11.30;99.90;;;;;;4922589;29;20081;-66
2022/01/02 10:57:54;;;;;;;18.10;10.00;;;11.40;99.90;;;;;;4907481;29;20052;-66
2022/01/02 11:00:27;;;;;;;23.70;9.35;;;11.40;99.90;;;;;;4907711;29;20052;-66
2022/01/02 11:02:54;;;;;;;21.52;10.65;;;11.40;99.90;;;;;;4908499;29;20092;-67
2022/01/02 11:05:22;;;;;;;24.60;10.82;;;11.40;99.90;;;;;;4940337;29;20161;-69
2022/01/02 11:07:50;;;;;;;21.27;8.30;;;11.40;99.90;;;;;;4924057;29;20060;-66
2022/01/02 11:10:18;;;;;;;16.33;7.18;;;11.40;99.90;;;;;;4892088;29;20041;-68
2022/01/02 11:12:44;;;;;;;20.17;7.03;;;11.50;99.90;;;;;;4921296;29;20544;-65
2022/01/02 11:15:12;;;;;;;;;;;11.50;99.90;;;;;;4921777;29;20141;-67
2022/01/02 11:17:38;;;;;;;25.05;7.18;;;11.40;99.90;;;;;;4905405;29;19923;-63
2022/01/02 11:20:10;;;;;;;18.02;6.90;;;11.50;99.90;;;;;;4896454;29;20040;-66
2022/01/02 11:22:44;;;;;;;14.35;5.97;;;11.50;99.90;;;;;;4907870;29;20056;-66
2022/01/02 11:25:28;;;;;;;18.25;6.28;;;11.50;99.90;;;;;;4918397;29;20048;-67
2022/01/02 11:28:00;;;;;;;17.30;6.28;;;11.60;99.90;;;;;;4918370;29;20048;-66
2022/01/02 11:30:35;;;;;;;17.08;6.93;;;11.50;99.90;;;;;;4907022;29;20063;-66
2022/01/02 11:33:25;;;;;;;13.63;5.88;;;11.60;99.90;;;;;;4907715;29;20056;-67
2022/01/02 11:35:51;;;;;;;22.75;5.95;;;11.60;99.90;;;;;;4894374;29;20055;-67
2022/01/02 11:38:19;;;;;;;14.55;5.95;;;11.60;99.90;;;;;;4913735;29;20092;-67
2022/01/02 11:40:47;;;;;;;21.20;6.38;;;11.60;99.90;;;;;;4910861;29;20116;-68
2022/01/02 11:43:38;;;;;;;16.80;5.30;;;11.60;99.90;;;;;;4914169;29;20086;-67
2022/01/02 11:46:13;;;;;;;15.75;6.70;;;11.60;99.90;;;;;;4910854;29;20054;-67
2022/01/02 11:48:38;;;;;;;20.80;6.18;;;11.70;99.90;;;;;;4910949;29;20078;-67
2022/01/02 11:51:04;;;;;;;15.15;5.07;;;11.60;99.90;;;;;;4909256;29;20068;-68
2022/01/02 11:53:34;;;;;;;14.30;5.70;;;11.60;99.90;;;;;;4907520;29;20063;-68
2022/01/02 11:56:01;;;;;;;15.77;5.15;;;11.70;99.90;;;;;;4927481;29;20308;-68
2022/01/02 11:58:38;;;;;;;13.32;5.25;;;11.60;99.90;;;;;;4927348;29;20076;-66
2022/01/02 12:01:06;;;;;;;18.40;5.53;;;11.60;99.90;;;;;;4906993;29;20452;-62
2022/01/02 12:03:41;;;;;;;17.60;6.18;;;11.60;99.90;;;;;;4927672;29;20040;-63
2022/01/02 12:06:22;;;;;;;17.77;5.90;;;11.60;99.90;;;;;;4910300;29;20122;-65
2022/01/02 12:08:49;;;;;;;17.60;5.75;;;11.60;99.90;;;;;;4927240;29;20040;-65
2022/01/02 12:11:41;;;;;;;15.27;5.07;;;11.60;99.90;;;;;;4926477;29;20044;-65
2022/01/02 12:14:09;;;;;;;14.55;5.55;;;11.60;99.90;;;;;;4895127;29;20052;-71
2022/01/02 12:16:37;;;;;;;20.27;5.30;;;11.60;99.90;;;;;;4926927;29;20048;-65
2022/01/02 12:19:04;;;;;;;22.10;5.88;;;11.60;99.90;;;;;;4942284;29;20441;-67
2022/01/02 12:21:32;;;;;;;17.92;5.05;;;11.60;99.90;;;;;;4906055;29;20115;-65
2022/01/02 12:23:58;;;;;;;25.02;5.45;;;11.60;99.90;;;;;;4910022;29;20071;-68
2022/01/02 12:26:33;;;;;;;16.30;4.78;;;11.60;99.90;;;;;;4910425;29;20074;-71
2022/01/02 12:29:12;;;;;;;23.17;5.80;;;11.50;99.90;;;;;;4927718;29;20048;-67
2022/01/02 12:31:40;;;;;;;19.85;4.97;;;11.60;99.90;;;;;;4939585;29;20043;-65
2022/01/02 12:34:11;;;;;;;17.85;4.68;;;11.60;99.90;;;;;;4918317;29;20048;-67
2022/01/02 12:36:40;;;;;;;20.75;4.63;;;11.60;99.90;;;;;;4917484;29;20051;-68
2022/01/02 12:39:10;;;;;;;17.05;4.50;;;11.60;99.90;;;;;;4914997;29;20060;-67
2022/01/02 12:41:38;;;;;;;21.90;4.45;;;11.50;99.90;;;;;;4908041;29;20055;-67
2022/01/02 12:44:11;;;;;;;18.15;3.83;;;11.50;99.90;;;;;;4909392;29;20488;-66
2022/01/02 12:46:44;;;;;;;19.45;4.10;;;11.50;99.90;;;;;;4924308;29;20071;-68
2022/01/02 12:49:19;;;;;;;11.63;3.95;;;11.60;99.90;;;;;;4927321;29;20052;-67